Hauptseite
METAR-TAF:

METAR-TAF

Flughäfen :

Flughafen Kiel

Kiel, Deutschland

Breite: 54-23N, Länge: 010-10E, Höhe: 31 m

Beobachtung

Neuester Wetterbericht von vor 9 Stunden und 42 Minuten, um 14:50 UTC
Wind 7 kt aus Süd, variierte zwischen Südost und Süd/Südwest
Temperatur 7°C
Luftfeuchtigkeit 70%
Luftdruck 1001 hPa
Sichtweite 10 km oder mehr
Durchbrochene Bewölkung in der Höhe von 3000 ft

METAR: EDHK 121450Z 18007KT 140V210 9999 BKN030 07/02 Q1001

Zeit: 01:32 (00:32 UTC)

Prognose

Neuester Wetterbericht von vor 10 Stunden und 32 Minuten, um 14:00 UTC
Gültige Prognose vom 12 um 15 UTC bis 12 um 18 UTC
Wind 8 kt aus Süd
Sichtweite 10 km oder mehr
Aufgelockert bewölkt in der Höhe von 3000 ft

TAF: EDHK 121400Z 1215/1218 19008KT 9999 SCT030

Wetterbeobachtungen und Prognosen von mehr als 4000 Flughäfen (METAR und TAF Bericht).

Die verfügbaren Stationen werden durch gelbe und rote Markierungen auf der Karte dargestellt.

Führen Sie die Maus auf sie, um den Namen der Station zu sehen.

Darauf klicken, um die Beobachtung von Wetterbeobachtungen und Prognosen zu sehen.

Um die Karte zu ändern : klicken Sie auf den grünen Tasten mit einem schwarzen Kreuz Zum Vergrößern, auf den grünen Button mit einem Gedankenstrich zu verkleinern, oder auf die grünen Pfeile für benachbarte Karten.


METAR-TAF: